createdAt,value
2019-04-10T00:01:34.095Z,5.9
2019-04-10T00:07:11.743Z,4.8
2019-04-10T00:12:36.039Z,0
2019-04-10T00:18:07.436Z,0
2019-04-10T00:23:39.394Z,0
2019-04-10T00:29:09.589Z,0
2019-04-10T00:34:40.684Z,0
2019-04-10T00:40:12.055Z,0
2019-04-10T00:45:43.969Z,0
2019-04-10T00:51:14.906Z,0
2019-04-10T00:56:45.347Z,0
2019-04-10T01:02:16.528Z,0
2019-04-10T01:07:48.548Z,0
2019-04-10T01:13:18.824Z,0
2019-04-10T01:18:49.855Z,0
2019-04-10T01:24:21.643Z,0
2019-04-10T01:29:52.093Z,0
2019-04-10T01:35:23.129Z,0
2019-04-10T01:40:55.316Z,0
2019-04-10T01:46:26.348Z,0
2019-04-10T01:51:57.317Z,0
2019-04-10T01:57:28.382Z,0
2019-04-10T02:02:58.465Z,0
2019-04-10T02:08:29.820Z,0
2019-04-10T02:14:00.701Z,0
2019-04-10T02:19:32.271Z,0
2019-04-10T02:25:03.380Z,0
2019-04-10T02:30:34.620Z,0
2019-04-10T02:36:05.665Z,0
2019-04-10T02:41:36.486Z,0
2019-04-10T02:47:07.580Z,0
2019-04-10T02:52:41.020Z,0
2019-04-10T02:58:09.842Z,0
2019-04-10T03:03:42.340Z,0
2019-04-10T03:09:28.716Z,0
2019-04-10T03:14:44.976Z,0
2019-04-10T03:20:14.209Z,0
2019-04-10T03:25:45.439Z,0
2019-04-10T03:31:16.343Z,0
2019-04-10T03:36:47.602Z,0
2019-04-10T03:42:18.935Z,0
2019-04-10T03:47:49.781Z,0
2019-04-10T03:53:20.920Z,0
2019-04-10T03:58:52.105Z,0
2019-04-10T04:04:23.720Z,0
2019-04-10T04:09:54.190Z,0
2019-04-10T04:15:26.102Z,0
2019-04-10T04:20:56.316Z,0
2019-04-10T04:26:28.201Z,0
2019-04-10T04:31:59.083Z,0
2019-04-10T04:37:30.128Z,0
2019-04-10T04:43:00.909Z,0
2019-04-10T04:48:31.903Z,0
2019-04-10T04:54:02.966Z,0
2019-04-10T04:59:34.581Z,0
2019-04-10T05:05:05.127Z,0
2019-04-10T05:10:36.273Z,0
2019-04-10T05:16:08.166Z,0
2019-04-10T05:21:38.486Z,0
2019-04-10T05:27:09.848Z,0
2019-04-10T05:32:41.752Z,0
2019-04-10T05:38:12.256Z,0
2019-04-10T05:43:43.031Z,0
2019-04-10T05:49:14.938Z,0
2019-04-10T05:54:45.558Z,0
2019-04-10T06:00:16.914Z,0
2019-04-10T06:05:48.627Z,0
2019-04-10T06:11:20.430Z,0
2019-04-10T06:16:51.024Z,0
2019-04-10T06:22:22.778Z,0
2019-04-10T06:27:53.050Z,0
2019-04-10T06:33:25.789Z,10.7
2019-04-10T06:38:56.872Z,10.7
2019-04-10T06:44:30.089Z,10.7
2019-04-10T06:50:02.391Z,9.6
2019-04-10T06:55:33.537Z,8.4
2019-04-10T07:01:06.312Z,5.9
2019-04-10T07:06:49.695Z,4.8
2019-04-10T07:12:10.522Z,5.9
2019-04-10T07:17:43.239Z,8.4
2019-04-10T07:23:21.879Z,8.4
2019-04-10T07:28:49.221Z,11.9
2019-04-10T07:34:25.139Z,9.6
2019-04-10T07:39:55.133Z,9.6
2019-04-10T07:45:27.959Z,9.6
2019-04-10T07:51:01.160Z,11.9
2019-04-10T07:56:35.352Z,13.2
2019-04-10T08:02:08.753Z,10.7
2019-04-10T08:07:41.381Z,10.7
2019-04-10T08:13:14.796Z,13.2
2019-04-10T08:18:48.257Z,10.7
2019-04-10T08:24:21.746Z,13.2
2019-04-10T08:29:55.288Z,14.4
2019-04-10T08:35:29.345Z,16.8
2019-04-10T08:41:02.803Z,16.8
2019-04-10T08:46:36.125Z,13.2
2019-04-10T08:52:10.336Z,13.2
2019-04-10T08:57:43.867Z,13.2
2019-04-10T09:03:17.555Z,13.2
2019-04-10T09:08:51.511Z,15.6
2019-04-10T09:14:26.211Z,11.9
2019-04-10T09:19:58.693Z,9.6
2019-04-10T09:25:31.811Z,13.2
2019-04-10T09:31:05.625Z,13.2
2019-04-10T09:36:39.612Z,0
2019-04-10T09:42:12.918Z,15.6
2019-04-10T09:47:48.037Z,16.8
2019-04-10T09:53:21.272Z,16.8
2019-04-10T09:58:56.650Z,18
2019-04-10T10:04:29.467Z,13.2
2019-04-10T10:10:04.216Z,19.2
2019-04-10T10:15:37.645Z,18
2019-04-10T10:21:10.873Z,13.2
2019-04-10T10:26:46.396Z,19.2
2019-04-10T10:32:19.183Z,15.6
2019-04-10T10:37:52.800Z,15.6
2019-04-10T10:43:27.121Z,15.6
2019-04-10T10:49:02.264Z,16.8
2019-04-10T10:54:36.861Z,14.4
2019-04-10T11:00:12.749Z,15.6
2019-04-10T11:05:44.527Z,13.2
2019-04-10T11:11:19.920Z,16.8
2019-04-10T11:16:53.663Z,16.8
2019-04-10T11:22:27.120Z,19.2
2019-04-10T11:28:01.167Z,16.8
2019-04-10T11:33:34.788Z,13.2
2019-04-10T11:39:16.646Z,16.8
2019-04-10T11:44:45.249Z,21.5
2019-04-10T11:55:52.925Z,19.2
2019-04-10T12:01:25.343Z,15.6
2019-04-10T12:07:00.178Z,18
2019-04-10T12:12:31.416Z,18
2019-04-10T12:18:05.062Z,16.8
2019-04-10T12:23:38.653Z,16.8
2019-04-10T12:29:12.353Z,19.2
2019-04-10T12:34:50.773Z,21.5
2019-04-10T12:40:23.692Z,15.6
2019-04-10T12:45:57.169Z,14.4
2019-04-10T12:51:31.885Z,16.8
2019-04-10T12:57:04.313Z,14.4
2019-04-10T13:02:38.603Z,11.9
2019-04-10T13:08:20.361Z,15.6
2019-04-10T13:13:44.962Z,14.4
2019-04-10T13:19:18.806Z,14.4
2019-04-10T13:24:52.367Z,13.2
2019-04-10T13:30:27.027Z,13.2
2019-04-10T13:36:00.044Z,15.6
2019-04-10T13:41:34.492Z,16.8
2019-04-10T13:47:07.825Z,23.9
2019-04-10T13:52:42.592Z,19.2
2019-04-10T13:58:15.864Z,19.2
2019-04-10T14:03:50.326Z,16.8
2019-04-10T14:09:34.057Z,20.4
2019-04-10T14:14:57.418Z,18
2019-04-10T14:20:30.928Z,14.4
2019-04-10T14:26:04.326Z,19.2
2019-04-10T14:31:36.472Z,22.8
2019-04-10T14:37:09.721Z,26.4
2019-04-10T14:42:42.927Z,27.6
2019-04-10T14:48:16.142Z,26.4
2019-04-10T14:53:49.145Z,27.6
2019-04-10T14:59:22.224Z,25.1
2019-04-10T15:04:55.412Z,26.4
2019-04-10T15:10:28.363Z,22.8
2019-04-10T15:16:01.453Z,21.5
2019-04-10T15:21:34.689Z,18
2019-04-10T15:27:07.449Z,19.2
2019-04-10T15:32:40.434Z,18
2019-04-10T15:38:13.731Z,22.8
2019-04-10T15:43:46.380Z,15.6
2019-04-10T15:49:19.459Z,20.4
2019-04-10T15:54:53.771Z,20.4
2019-04-10T16:00:25.389Z,21.5
2019-04-10T16:05:58.091Z,19.2
2019-04-10T16:11:31.926Z,16.8
2019-04-10T16:17:04.677Z,27.6
2019-04-10T16:22:36.664Z,22.8
2019-04-10T16:28:10.987Z,19.2
2019-04-10T16:33:43.331Z,20.4
2019-04-10T16:39:15.491Z,21.5
2019-04-10T16:44:49.098Z,21.5
2019-04-10T16:50:21.606Z,20.4
2019-04-10T16:55:53.655Z,18
2019-04-10T17:01:26.782Z,16.8
2019-04-10T17:06:59.177Z,21.5
2019-04-10T17:12:33.773Z,16.8
2019-04-10T17:18:04.639Z,14.4
2019-04-10T17:23:37.384Z,13.2
2019-04-10T17:29:09.692Z,13.2
2019-04-10T17:34:43.075Z,16.8
2019-04-10T17:40:27.107Z,13.2
2019-04-10T17:45:47.503Z,11.9
2019-04-10T17:51:19.752Z,0
2019-04-10T17:56:51.216Z,0
2019-04-10T18:02:23.365Z,0
2019-04-10T18:07:54.744Z,0
2019-04-10T18:13:26.742Z,0
2019-04-10T18:18:58.286Z,0
2019-04-10T18:24:30.405Z,0
2019-04-10T18:30:02.437Z,15.6
2019-04-10T18:35:35.285Z,13.2
2019-04-10T18:41:09.013Z,10.7
2019-04-10T18:46:40.184Z,10.7
2019-04-10T18:52:12.961Z,10.7
2019-04-10T18:57:45.378Z,10.7
2019-04-10T19:03:17.874Z,10.7
2019-04-10T19:09:02.622Z,10.7
2019-04-10T19:14:23.011Z,11.9
2019-04-10T19:19:56.741Z,11.9
2019-04-10T19:25:28.194Z,11.9
2019-04-10T19:31:08.479Z,11.9
2019-04-10T19:36:34.372Z,13.2
2019-04-10T19:42:05.914Z,13.2
2019-04-10T19:47:38.816Z,11.9
2019-04-10T19:53:11.195Z,9.6
2019-04-10T19:58:44.064Z,7.2
2019-04-10T20:04:17.232Z,8.4
2019-04-10T20:09:48.656Z,8.4
2019-04-10T20:15:21.210Z,7.2
2019-04-10T20:20:53.659Z,7.2
2019-04-10T20:26:27.212Z,8.4
2019-04-10T20:31:58.822Z,10.7
2019-04-10T20:37:31.396Z,15.6
2019-04-10T20:43:04.765Z,15.6
2019-04-10T20:48:38.320Z,14.4
2019-04-10T20:54:08.985Z,14.4
2019-04-10T20:59:42.492Z,13.2
2019-04-10T21:05:15.219Z,11.9
2019-04-10T21:10:47.199Z,14.4
2019-04-10T21:16:19.957Z,10.7
2019-04-10T21:21:52.077Z,13.2
2019-04-10T21:27:24.355Z,16.8
2019-04-10T21:32:58.277Z,18
2019-04-10T21:38:30.176Z,15.6
2019-04-10T21:44:02.306Z,18
2019-04-10T21:49:35.905Z,16.8
2019-04-10T21:55:07.324Z,15.6
2019-04-10T22:00:40.777Z,15.6
2019-04-10T22:06:13.341Z,11.9
2019-04-10T22:11:45.593Z,10.7
2019-04-10T22:17:17.419Z,11.9
2019-04-10T22:22:50.036Z,11.9
2019-04-10T22:28:23.229Z,11.9
2019-04-10T22:33:56.278Z,10.7
2019-04-10T22:39:27.709Z,13.2
2019-04-10T22:45:00.366Z,14.4
2019-04-10T22:50:32.756Z,14.4
2019-04-10T22:56:05.251Z,10.7
2019-04-10T23:01:37.831Z,10.7
2019-04-10T23:07:11.434Z,9.6
2019-04-10T23:12:51.768Z,18
2019-04-10T23:18:15.472Z,22.8
2019-04-10T23:23:48.871Z,18
2019-04-10T23:29:20.521Z,19.2
2019-04-10T23:34:53.138Z,15.6
2019-04-10T23:40:25.568Z,15.6
2019-04-10T23:45:58.068Z,14.4
2019-04-10T23:51:31.433Z,13.2
2019-04-10T23:57:07.516Z,16.8
